Terminal Aerodrome Forecast
Issued by NWS

Home | Current Version | Previous Version | Text Only | Print | Product List | Glossary On
Versions: 1 2 3 4 5 6 7 8 9 10 11 12 13 14 15 16 17 18 19 20 21 22 23 24 25 26 27 28
000
FTUS44 KLIX 030520
TAFHUM
TAF
KHUM 030520Z 0306/0406 VRB03KT P6SM BKN250
      TEMPO 0309/0312 5SM BR
     FM031430 13007KT P6SM BKN045
      TEMPO 0317/0321 3SM -TSRA BKN030CB
     FM040100 12005KT P6SM SCT110 BKN250=

USA.gov is the U.S. government's official web portal to all federal, state and local government web resources and services.